KESF/ESF METAR and TAF weather

Enter ICAO airport designator
Station Type Date Time Source
KESF METAR 2019/10/23 19:53 UTC NOAA

KESF 231953Z AUTO VRB06KT 10SM CLR 24/04 A3011 RMK AO2 SLP194 T02390044


Station Type Date Time Source
KESF Decoded METAR 2019/10/23 19:53 UTC NOAA

ALEXANDRIA ESLER RGNL AIRPORT , LA, United States (KESF) 31-24N 092-18W 28M
Oct 23, 2019 - 03:53 PM EDT / 2019.10.23 1953 UTC
Wind: Variable at 7 MPH (6 KT):0
Visibility: 10 mile(s):0
Sky conditions: clear
Temperature: 75.0 F (23.9 C)
Dew Point: 39.9 F (4.4 C)
Relative Humidity: 28%
Pressure (altimeter): 30.11 in. Hg (1019 hPa)
ob: KESF 231953Z AUTO VRB06KT 10SM CLR 24/04 A3011 RMK AO2 SLP194 T02390044
cycle: 20

Station Type Date Time Source
KESF TAF UTC NOAA

Error!

Example: see airport list